Погода Дадонына неделю

Смоленская область, Россия

23 - 29 июля
  • 23июля
    Сегодня
    +10°
    +26°
    Облачно с прояснениями
    ВремяПогодаТемператураВлажностьДавлениеВетер, м/сВероятность осадков
    00:00Ясно и безоблачно+14°C95 %746 мм0.7 м/с2 %
    03:00Ясно и безоблачно+12°C95 %746 мм0.5 м/с2 %
    06:00Ясно и безоблачно+12°C93 %746 мм0.6 м/с2 %
    09:00Ясно и безоблачно+19°C83 %747 мм1.3 м/с2 %
    12:00Практически безоблачно+24°C54 %747 мм2.1 м/с4 %
    15:00Облачно с прояснениями+26°C48 %747 мм2.2 м/с2 %
    18:00Практически безоблачно+25°C49 %746 мм2.0 м/с2 %
    21:00Ясно и безоблачно+18°C72 %746 мм0.4 м/с2 %
  • 24июля
    Среда
    +10°
    +27°
    Практически безоблачно
    ВремяПогодаТемператураВлажностьДавлениеВетер, м/сВероятность осадков
    00:00Ясно и безоблачно+13°C75 %746 мм0.8 м/с2 %
    03:00Ясно и безоблачно+11°C78 %746 мм0.3 м/с2 %
    06:00Ясно и безоблачно+11°C82 %746 мм0.2 м/с2 %
    09:00Ясно и безоблачно+18°C71 %746 мм0.9 м/с2 %
    12:00Практически безоблачно+24°C50 %746 мм2.0 м/с2 %
    15:00Практически безоблачно+26°C45 %746 мм1.8 м/с2 %
    18:00Облачно с прояснениями+26°C43 %745 мм1.5 м/с2 %
    21:00Ясно и безоблачно+19°C64 %745 мм0.0 м/с2 %
  • 25июля
    Четверг
    +12°
    +27°
    Облачно с прояснениями
    ВремяПогодаТемператураВлажностьДавлениеВетер, м/сВероятность осадков
    00:00Ясно и безоблачно+14°C72 %745 мм0.6 м/с2 %
    03:00Практически безоблачно+12°C77 %744 мм0.1 м/с2 %
    06:00Ясно и безоблачно+12°C85 %744 мм0.2 м/с2 %
    09:00Практически безоблачно+20°C68 %745 мм0.7 м/с2 %
    12:00Практически безоблачно+25°C45 %745 мм1.5 м/с2 %
    15:00Облачно с прояснениями+27°C41 %744 мм1.4 м/с6 %
    18:00Облачно с прояснениями+27°C45 %744 мм1.1 м/с17 %
    21:00Ясно и безоблачно+20°C69 %744 мм0.0 м/с6 %
  • 26июля
    Пятница
    +12°
    +28°
    Пасмурно, сплошная облачность
    ВремяПогодаТемператураВлажностьДавлениеВетер, м/сВероятность осадков
    00:00Ясно и безоблачно+16°C73 %744 мм0.4 м/с2 %
    03:00Практически безоблачно+13°C73 %744 мм0.3 м/с3 %
    06:00Практически безоблачно+13°C85 %745 мм0.2 м/с2 %
    09:00Практически безоблачно+21°C73 %746 мм0.5 м/с2 %
    12:00Ясно и безоблачно+26°C54 %747 мм1.2 м/с23 %
    15:00Пасмурно, сплошная облачность+28°C50 %747 мм1.4 м/с26 %
    18:00Небольшая облачность, возможен дождь с грозой+25°C72 %747 мм0.8 м/с44 %
    21:00Ясно и безоблачно+20°C80 %748 мм0.2 м/с16 %
  • 27июля
    Суббота
    +14°
    +29°
    Небольшая облачность
    ВремяПогодаТемператураВлажностьДавлениеВетер, м/сВероятность осадков
    00:00Ясно и безоблачно+16°C86 %748 мм0.4 м/с4 %
    03:00Ясно и безоблачно+14°C92 %749 мм0.1 м/с4 %
    06:00Ясно и безоблачно+14°C96 %749 мм0.0 м/с7 %
    09:00Ясно и безоблачно+21°C75 %750 мм0.7 м/с9 %
    12:00Ясно и безоблачно+26°C63 %751 мм1.1 м/с27 %
    15:00Небольшая облачность+29°C56 %751 мм2.0 м/с32 %
    18:00Ясно и безоблачно+27°C58 %750 мм1.1 м/с32 %
    21:00Ясно и безоблачно+20°C80 %751 мм0.2 м/с15 %
Мы используем cookies
Соглашаюсь